createdAt,value
2017-06-24T00:00:22.840Z,10.87
2017-06-24T00:02:52.697Z,7.07
2017-06-24T00:05:21.841Z,6.70
2017-06-24T00:07:52.716Z,7.63
2017-06-24T00:10:22.804Z,9.20
2017-06-24T00:12:51.868Z,6.80
2017-06-24T00:15:20.942Z,9.00
2017-06-24T00:17:50.007Z,7.53
2017-06-24T00:20:19.829Z,7.53
2017-06-24T00:22:48.913Z,6.73
2017-06-24T00:25:18.223Z,9.37
2017-06-24T00:27:47.287Z,9.00
2017-06-24T00:30:16.383Z,8.40
2017-06-24T00:32:45.427Z,12.07
2017-06-24T00:35:14.545Z,5.07
2017-06-24T00:37:43.599Z,7.23
2017-06-24T00:40:13.507Z,7.30
2017-06-24T00:42:42.576Z,11.47
2017-06-24T00:45:11.644Z,11.00
2017-06-24T00:47:40.723Z,7.30
2017-06-24T00:50:09.833Z,7.17
2017-06-24T00:52:38.899Z,6.53
2017-06-24T00:55:07.966Z,10.10
2017-06-24T00:57:36.991Z,5.83
2017-06-24T01:00:06.245Z,6.77
2017-06-24T01:02:35.283Z,6.40
2017-06-24T01:05:04.450Z,6.07
2017-06-24T01:07:33.512Z,7.70
2017-06-24T01:10:02.580Z,4.73
2017-06-24T01:12:31.605Z,6.43
2017-06-24T01:15:00.683Z,10.40
2017-06-24T01:17:29.777Z,6.60
2017-06-24T01:19:58.827Z,7.40
2017-06-24T01:22:27.867Z,7.20
2017-06-24T01:24:56.920Z,7.73
2017-06-24T01:27:25.999Z,6.20
2017-06-24T01:29:55.068Z,5.73
2017-06-24T01:32:24.117Z,7.90
2017-06-24T01:34:53.196Z,5.47
2017-06-24T01:37:22.255Z,5.53
2017-06-24T01:39:51.306Z,5.80
2017-06-24T01:42:20.615Z,5.80
2017-06-24T01:44:49.669Z,5.20
2017-06-24T01:47:18.709Z,6.13
2017-06-24T01:49:47.824Z,8.53
2017-06-24T01:52:17.133Z,5.53
2017-06-24T01:54:46.184Z,9.80
2017-06-24T01:57:15.329Z,5.53
2017-06-24T01:59:44.383Z,8.47
2017-06-24T02:02:13.412Z,7.03
2017-06-24T02:04:42.515Z,5.10
2017-06-24T02:07:11.549Z,5.30
2017-06-24T02:09:40.624Z,3.90
2017-06-24T02:12:09.903Z,4.63
2017-06-24T02:14:38.936Z,6.50
2017-06-24T02:17:08.010Z,7.97
2017-06-24T02:19:37.075Z,5.10
2017-06-24T02:22:06.125Z,4.90
2017-06-24T02:24:35.536Z,8.87
2017-06-24T02:27:04.631Z,5.13
2017-06-24T02:29:33.688Z,6.93
2017-06-24T02:32:02.748Z,7.40
2017-06-24T02:34:32.063Z,4.40
2017-06-24T02:37:01.128Z,5.20
2017-06-24T02:39:30.205Z,5.73
2017-06-24T02:41:59.248Z,7.63
2017-06-24T02:44:28.307Z,7.07
2017-06-24T02:46:57.359Z,4.70
2017-06-24T02:49:26.404Z,5.57
2017-06-24T02:51:55.510Z,6.97
2017-06-24T02:54:24.559Z,5.90
2017-06-24T02:56:53.647Z,3.93
2017-06-24T02:59:22.743Z,8.17
2017-06-24T03:01:51.770Z,4.50
2017-06-24T03:04:20.863Z,7.00
2017-06-24T03:06:49.925Z,5.83
2017-06-24T03:09:18.983Z,6.30
2017-06-24T03:11:48.032Z,4.90
2017-06-24T03:14:17.090Z,8.90
2017-06-24T03:16:46.405Z,8.20
2017-06-24T03:19:15.466Z,6.03
2017-06-24T03:21:44.548Z,4.80
2017-06-24T03:24:13.616Z,4.63
2017-06-24T03:26:42.670Z,4.67
2017-06-24T03:29:11.837Z,5.73
2017-06-24T03:31:40.891Z,7.70
2017-06-24T03:34:09.988Z,6.10
2017-06-24T03:36:39.067Z,4.00
2017-06-24T03:39:08.130Z,8.47
2017-06-24T03:41:37.184Z,5.73
2017-06-24T03:44:06.283Z,6.10
2017-06-24T03:46:35.308Z,4.80
2017-06-24T03:49:04.364Z,4.70
2017-06-24T03:51:33.415Z,4.90
2017-06-24T03:54:02.483Z,8.00
2017-06-24T03:56:31.532Z,6.97
2017-06-24T03:59:00.612Z,5.73
2017-06-24T04:01:29.758Z,4.20
2017-06-24T04:03:58.827Z,4.03
2017-06-24T04:06:27.887Z,3.73
2017-06-24T04:08:56.940Z,3.70
2017-06-24T04:11:25.992Z,4.57
2017-06-24T04:13:55.067Z,4.50
2017-06-24T04:16:24.116Z,6.50
2017-06-24T04:18:53.204Z,5.00
2017-06-24T04:21:22.268Z,4.03
2017-06-24T04:23:51.314Z,4.70
2017-06-24T04:26:20.376Z,3.20
2017-06-24T04:28:49.436Z,5.23
2017-06-24T04:31:18.483Z,4.17
2017-06-24T04:33:47.527Z,6.23
2017-06-24T04:36:16.588Z,5.50
2017-06-24T04:38:45.639Z,3.30
2017-06-24T04:41:14.703Z,10.03
2017-06-24T04:43:43.788Z,6.00
2017-06-24T04:46:12.878Z,3.80
2017-06-24T04:48:41.925Z,5.20
2017-06-24T04:51:10.981Z,5.47
2017-06-24T04:53:40.153Z,4.47
2017-06-24T04:56:09.228Z,4.50
2017-06-24T04:58:38.305Z,4.20
2017-06-24T05:01:07.380Z,4.87
2017-06-24T05:03:36.523Z,2.80
2017-06-24T05:06:05.572Z,4.37
2017-06-24T05:08:34.872Z,3.50
2017-06-24T05:11:03.956Z,5.80
2017-06-24T05:13:33.004Z,5.00
2017-06-24T05:16:02.065Z,5.60
2017-06-24T05:18:31.128Z,3.63
2017-06-24T05:21:00.200Z,4.10
2017-06-24T05:23:29.251Z,7.27
2017-06-24T05:25:58.332Z,4.77
2017-06-24T05:28:27.408Z,7.90
2017-06-24T05:30:56.465Z,4.70
2017-06-24T05:33:25.532Z,4.67
2017-06-24T05:35:54.608Z,4.93
2017-06-24T05:38:23.644Z,6.40
2017-06-24T05:40:52.739Z,6.80
2017-06-24T05:43:21.783Z,4.10
2017-06-24T05:45:50.879Z,6.50
2017-06-24T05:48:19.939Z,4.10
2017-06-24T05:50:49.019Z,3.67
2017-06-24T05:53:18.072Z,4.87
2017-06-24T05:55:47.147Z,5.83
2017-06-24T05:58:16.192Z,9.83
2017-06-24T06:00:45.280Z,6.93
2017-06-24T06:03:14.365Z,5.13
2017-06-24T06:05:43.482Z,6.43
2017-06-24T06:08:12.796Z,4.17
2017-06-24T06:10:41.866Z,5.17
2017-06-24T06:13:10.904Z,4.77
2017-06-24T06:15:39.967Z,7.63
2017-06-24T06:18:09.036Z,4.83
2017-06-24T06:20:38.120Z,3.20
2017-06-24T06:23:07.173Z,5.23
2017-06-24T06:25:36.265Z,4.23
2017-06-24T06:28:05.369Z,4.17
2017-06-24T06:30:34.435Z,6.27
2017-06-24T06:33:03.487Z,4.63
2017-06-24T06:35:32.569Z,4.10
2017-06-24T06:38:01.634Z,4.67
2017-06-24T06:40:30.684Z,4.60
2017-06-24T06:42:59.746Z,10.23
2017-06-24T06:45:28.958Z,5.13
2017-06-24T06:47:58.008Z,5.17
2017-06-24T06:50:27.100Z,4.37
2017-06-24T06:52:56.157Z,3.43
2017-06-24T06:55:25.204Z,7.50
2017-06-24T06:57:54.286Z,5.27
2017-06-24T07:00:23.332Z,6.57
2017-06-24T07:02:52.408Z,5.17
2017-06-24T07:05:21.471Z,6.93
2017-06-24T07:07:50.529Z,6.00
2017-06-24T07:10:19.656Z,5.13
2017-06-24T07:12:48.928Z,3.47
2017-06-24T07:15:18.043Z,3.20
2017-06-24T07:17:47.109Z,11.40
2017-06-24T07:20:16.176Z,3.53
2017-06-24T07:22:45.235Z,3.63
2017-06-24T07:25:14.300Z,5.40
2017-06-24T07:27:43.345Z,5.93
2017-06-24T07:30:12.464Z,6.20
2017-06-24T07:32:41.517Z,3.40
2017-06-24T07:35:10.608Z,5.07
2017-06-24T07:37:39.692Z,3.20
2017-06-24T07:40:08.820Z,5.00
2017-06-24T07:42:37.878Z,6.70
2017-06-24T07:45:06.981Z,7.43
2017-06-24T07:47:36.032Z,5.00
2017-06-24T07:50:05.089Z,4.27
2017-06-24T07:52:34.121Z,4.90
2017-06-24T07:55:03.210Z,4.47
2017-06-24T07:57:32.236Z,6.20
2017-06-24T08:00:01.340Z,9.90
2017-06-24T08:02:30.624Z,3.60
2017-06-24T08:04:59.675Z,5.93
2017-06-24T08:07:28.779Z,3.40
2017-06-24T08:09:57.843Z,3.97
2017-06-24T08:12:29.061Z,5.47
2017-06-24T08:14:58.125Z,10.73
2017-06-24T08:17:27.191Z,4.30
2017-06-24T08:19:56.277Z,5.10
2017-06-24T08:22:26.088Z,5.03
2017-06-24T08:24:55.920Z,3.80
2017-06-24T08:27:25.005Z,7.37
2017-06-24T08:29:54.053Z,4.53
2017-06-24T08:32:23.128Z,5.53
2017-06-24T08:34:52.176Z,4.10
2017-06-24T08:37:22.029Z,5.07
2017-06-24T08:39:51.092Z,4.80
2017-06-24T08:42:20.154Z,5.17
2017-06-24T08:44:49.228Z,5.10
2017-06-24T08:47:18.288Z,3.57
2017-06-24T08:49:47.367Z,5.80
2017-06-24T08:52:17.180Z,3.20
2017-06-24T08:54:47.066Z,5.37
2017-06-24T08:57:16.154Z,4.20
2017-06-24T08:59:45.456Z,7.83
2017-06-24T09:02:14.531Z,3.40
2017-06-24T09:04:43.584Z,5.10
2017-06-24T09:07:13.408Z,3.70
2017-06-24T09:09:42.454Z,3.13
2017-06-24T09:12:11.875Z,3.73
2017-06-24T09:14:40.912Z,5.40
2017-06-24T09:17:10.049Z,3.47
2017-06-24T09:19:39.127Z,5.90
2017-06-24T09:22:08.196Z,3.63
2017-06-24T09:24:37.256Z,5.17
2017-06-24T09:27:07.187Z,5.77
2017-06-24T09:29:36.256Z,3.53
2017-06-24T09:32:05.359Z,4.17
2017-06-24T09:34:34.409Z,6.27
2017-06-24T09:37:03.449Z,6.33
2017-06-24T09:39:33.269Z,3.00
2017-06-24T09:42:03.132Z,5.60
2017-06-24T09:44:32.183Z,5.27
2017-06-24T09:47:01.289Z,4.23
2017-06-24T09:49:30.341Z,3.60
2017-06-24T09:51:59.424Z,3.13
2017-06-24T09:54:28.636Z,3.50
2017-06-24T09:56:57.703Z,4.20
2017-06-24T09:59:26.786Z,3.93
2017-06-24T10:01:55.845Z,3.93
2017-06-24T10:04:24.922Z,4.73
2017-06-24T10:06:54.032Z,4.00
2017-06-24T10:09:23.848Z,5.43
2017-06-24T10:11:53.700Z,10.03
2017-06-24T10:14:22.761Z,6.53
2017-06-24T10:16:52.585Z,10.07
2017-06-24T10:19:21.946Z,4.33
2017-06-24T10:21:51.261Z,6.10
2017-06-24T10:24:20.333Z,4.87
2017-06-24T10:26:49.385Z,4.67
2017-06-24T10:29:18.440Z,4.23
2017-06-24T10:31:47.537Z,4.50
2017-06-24T10:34:16.723Z,3.63
2017-06-24T10:36:45.761Z,6.03
2017-06-24T10:39:14.842Z,6.13
2017-06-24T10:41:44.148Z,5.90
2017-06-24T10:44:13.252Z,4.00
2017-06-24T10:46:42.304Z,5.20
2017-06-24T10:49:11.434Z,4.23
2017-06-24T10:51:40.493Z,3.50
2017-06-24T10:54:09.588Z,5.67
2017-06-24T10:56:38.660Z,5.53
2017-06-24T10:59:07.716Z,4.73
2017-06-24T11:01:36.769Z,10.23
2017-06-24T11:04:05.862Z,3.80
2017-06-24T11:06:35.114Z,5.83
2017-06-24T11:09:04.747Z,3.80
2017-06-24T11:11:33.826Z,4.33
2017-06-24T11:14:02.871Z,4.50
2017-06-24T11:16:31.950Z,5.83
2017-06-24T11:19:01.004Z,4.83
2017-06-24T11:21:30.498Z,6.93
2017-06-24T11:23:59.556Z,6.23
2017-06-24T11:26:28.612Z,7.20
2017-06-24T11:28:57.700Z,8.40
2017-06-24T11:31:26.765Z,4.60
2017-06-24T11:33:55.844Z,4.70
2017-06-24T11:36:24.904Z,7.40
2017-06-24T11:38:53.973Z,5.57
2017-06-24T11:41:23.044Z,4.60
2017-06-24T11:43:52.159Z,5.97
2017-06-24T11:46:21.223Z,4.70
2017-06-24T11:48:50.284Z,7.70
2017-06-24T11:51:19.329Z,4.43
2017-06-24T11:53:48.456Z,15.60
2017-06-24T11:56:17.520Z,4.50
2017-06-24T11:58:46.591Z,6.27
2017-06-24T12:01:15.668Z,7.73
2017-06-24T12:03:44.765Z,9.67
2017-06-24T12:06:13.817Z,5.37
2017-06-24T12:08:42.865Z,5.50
2017-06-24T12:11:12.053Z,4.70
2017-06-24T12:13:41.093Z,7.03
2017-06-24T12:16:10.170Z,4.67
2017-06-24T12:18:40.034Z,8.60
2017-06-24T12:21:09.603Z,6.80
2017-06-24T12:23:39.429Z,5.30
2017-06-24T12:26:08.492Z,4.33
2017-06-24T12:28:37.548Z,6.57
2017-06-24T12:31:06.596Z,4.43
2017-06-24T12:33:35.698Z,7.53
2017-06-24T12:36:04.765Z,4.80
2017-06-24T12:38:34.136Z,5.17
2017-06-24T12:41:03.236Z,4.33
2017-06-24T12:43:32.297Z,6.87
2017-06-24T12:46:01.393Z,5.27
2017-06-24T12:48:30.415Z,6.07
2017-06-24T12:50:59.724Z,8.50
2017-06-24T12:53:28.803Z,4.13
2017-06-24T12:55:57.865Z,4.13
2017-06-24T12:58:26.959Z,4.70
2017-06-24T13:00:56.013Z,5.07
2017-06-24T13:03:25.058Z,6.87
2017-06-24T13:05:54.132Z,12.20
2017-06-24T13:08:23.977Z,8.17
2017-06-24T13:11:23.911Z,5.17
2017-06-24T13:13:52.992Z,8.07
2017-06-24T13:16:22.315Z,4.40
2017-06-24T13:18:51.387Z,6.60
2017-06-24T13:21:20.492Z,7.53
2017-06-24T13:23:49.561Z,7.70
2017-06-24T13:26:18.608Z,4.00
2017-06-24T13:28:47.705Z,5.10
2017-06-24T13:31:16.797Z,5.10
2017-06-24T13:33:45.877Z,4.60
2017-06-24T13:36:14.952Z,7.90
2017-06-24T13:38:44.165Z,4.70
2017-06-24T13:41:13.223Z,4.60
2017-06-24T13:43:42.300Z,5.47
2017-06-24T13:46:12.231Z,4.63
2017-06-24T13:48:41.261Z,5.30
2017-06-24T13:51:12.004Z,5.40
2017-06-24T13:53:41.326Z,4.63
2017-06-24T13:56:10.415Z,5.47
2017-06-24T13:58:39.557Z,4.80
2017-06-24T14:01:08.650Z,5.10
2017-06-24T14:03:38.476Z,4.93
2017-06-24T14:06:07.564Z,5.20
2017-06-24T14:08:37.348Z,6.27
2017-06-24T14:11:07.404Z,4.57
2017-06-24T14:13:36.504Z,5.77
2017-06-24T14:16:05.595Z,5.50
2017-06-24T14:18:35.384Z,5.03
2017-06-24T14:21:04.447Z,5.30
2017-06-24T14:23:33.536Z,5.03
2017-06-24T14:26:02.601Z,5.57
2017-06-24T14:28:31.669Z,4.63
2017-06-24T14:31:00.748Z,5.97
2017-06-24T14:33:29.775Z,5.53
2017-06-24T14:35:58.843Z,6.80
2017-06-24T14:38:28.679Z,6.27
2017-06-24T14:40:57.768Z,6.20
2017-06-24T14:43:26.833Z,6.67
2017-06-24T14:45:56.743Z,7.40
2017-06-24T14:48:25.772Z,7.90
2017-06-24T14:50:54.840Z,6.43
2017-06-24T14:53:24.697Z,6.33
2017-06-24T14:55:53.766Z,7.30
2017-06-24T14:58:22.834Z,8.57
2017-06-24T15:00:51.893Z,7.40
2017-06-24T15:03:20.963Z,6.00
2017-06-24T15:05:50.048Z,6.60
2017-06-24T15:08:19.392Z,7.03
2017-06-24T15:10:48.443Z,6.20
2017-06-24T15:13:18.052Z,7.37
2017-06-24T15:15:47.847Z,6.17
2017-06-24T15:18:17.676Z,7.20
2017-06-24T15:20:46.733Z,6.37
2017-06-24T15:23:15.787Z,6.47
2017-06-24T15:25:44.889Z,7.57
2017-06-24T15:28:13.956Z,8.27
2017-06-24T15:30:43.040Z,8.20
2017-06-24T15:33:12.894Z,7.37
2017-06-24T15:35:41.947Z,9.60
2017-06-24T15:38:11.775Z,7.33
2017-06-24T15:40:40.833Z,7.33
2017-06-24T15:43:09.887Z,10.63
2017-06-24T15:45:38.972Z,10.43
2017-06-24T15:48:08.042Z,9.77
2017-06-24T15:50:38.207Z,7.67
2017-06-24T15:53:07.253Z,7.40
2017-06-24T15:55:37.076Z,7.23
2017-06-24T15:58:06.133Z,7.80
2017-06-24T16:00:35.221Z,8.77
2017-06-24T16:03:04.292Z,11.70
2017-06-24T16:05:33.352Z,8.37
2017-06-24T16:08:03.220Z,8.53
2017-06-24T16:10:32.246Z,7.80
2017-06-24T16:13:02.108Z,9.70
2017-06-24T16:15:31.197Z,9.60
2017-06-24T16:18:00.262Z,8.73
2017-06-24T16:20:30.193Z,8.27
2017-06-24T16:22:59.278Z,8.03
2017-06-24T16:25:28.325Z,7.83
2017-06-24T16:27:57.389Z,8.87
2017-06-24T16:30:26.464Z,9.77
2017-06-24T16:32:55.520Z,12.83
2017-06-24T16:35:24.598Z,12.00
2017-06-24T16:37:53.657Z,9.70
2017-06-24T16:40:22.752Z,10.17
2017-06-24T16:42:51.828Z,10.87
2017-06-24T16:45:21.671Z,9.00
2017-06-24T16:47:50.776Z,12.00
2017-06-24T16:50:19.871Z,15.30
2017-06-24T16:52:48.944Z,10.00
2017-06-24T16:55:17.992Z,12.07
2017-06-24T16:57:47.316Z,12.13
2017-06-24T17:00:17.181Z,15.20
2017-06-24T17:02:46.243Z,9.57
2017-06-24T17:05:16.087Z,8.57
2017-06-24T17:07:45.155Z,12.00
2017-06-24T17:10:14.274Z,11.07
2017-06-24T17:12:43.365Z,10.00
2017-06-24T17:15:12.448Z,19.93
2017-06-24T17:17:41.779Z,14.80
2017-06-24T17:20:10.876Z,10.30
2017-06-24T17:22:39.986Z,8.83
2017-06-24T17:25:09.334Z,12.33
2017-06-24T17:27:39.159Z,10.50
2017-06-24T17:30:08.236Z,11.00
2017-06-24T17:32:37.315Z,9.87
2017-06-24T17:35:06.373Z,9.87
2017-06-24T17:37:35.453Z,8.90
2017-06-24T17:40:04.503Z,6.90
2017-06-24T17:42:33.600Z,10.07
2017-06-24T17:45:02.659Z,10.00
2017-06-24T17:47:31.713Z,7.87
2017-06-24T17:50:00.796Z,6.80
2017-06-24T17:52:29.861Z,6.57
2017-06-24T17:54:58.920Z,6.63
2017-06-24T17:57:27.973Z,6.80
2017-06-24T17:59:57.068Z,6.27
2017-06-24T18:02:26.141Z,6.33
2017-06-24T18:04:55.359Z,6.53
2017-06-24T18:07:24.400Z,6.83
2017-06-24T18:09:53.498Z,7.37
2017-06-24T18:12:22.605Z,6.67
2017-06-24T18:14:51.692Z,7.33
2017-06-24T18:17:20.751Z,6.67
2017-06-24T18:19:49.872Z,8.17
2017-06-24T18:22:18.944Z,5.90
2017-06-24T18:24:48.027Z,5.80
2017-06-24T18:27:17.125Z,7.50
2017-06-24T18:29:46.195Z,5.67
2017-06-24T18:32:16.167Z,7.47
2017-06-24T18:34:45.237Z,5.93
2017-06-24T18:37:14.308Z,6.50
2017-06-24T18:39:43.384Z,6.43
2017-06-24T18:42:12.562Z,7.73
2017-06-24T18:44:41.614Z,6.30
2017-06-24T18:47:10.692Z,7.67
2017-06-24T18:49:39.775Z,7.30
2017-06-24T18:52:08.984Z,7.53
2017-06-24T18:54:38.036Z,7.13
2017-06-24T18:57:07.139Z,7.13
2017-06-24T18:59:36.225Z,7.43
2017-06-24T19:02:05.401Z,10.63
2017-06-24T19:04:34.479Z,11.83
2017-06-24T19:07:03.564Z,13.20
2017-06-24T19:09:32.631Z,12.43
2017-06-24T19:12:01.984Z,12.70
2017-06-24T19:14:31.016Z,15.73
2017-06-24T19:17:00.159Z,10.70
2017-06-24T19:19:29.206Z,10.80
2017-06-24T19:21:58.276Z,11.87
2017-06-24T19:24:27.361Z,12.50
2017-06-24T19:26:56.451Z,11.20
2017-06-24T19:29:25.576Z,12.23
2017-06-24T19:31:54.663Z,11.40
2017-06-24T19:34:23.762Z,10.53
2017-06-24T19:36:53.034Z,11.50
2017-06-24T19:39:22.115Z,10.97
2017-06-24T19:41:51.174Z,11.77
2017-06-24T19:44:20.280Z,10.93
2017-06-24T19:46:49.364Z,11.60
2017-06-24T19:49:18.440Z,12.60
2017-06-24T19:51:47.553Z,13.17
2017-06-24T19:54:16.825Z,12.83
2017-06-24T19:56:45.893Z,13.10
2017-06-24T19:59:14.972Z,13.47
2017-06-24T20:01:44.078Z,13.27
2017-06-24T20:04:13.207Z,14.40
2017-06-24T20:06:42.301Z,13.40
2017-06-24T20:09:11.442Z,13.30
2017-06-24T20:11:40.503Z,13.60
2017-06-24T20:14:09.622Z,14.53
2017-06-24T20:16:38.708Z,13.23
2017-06-24T20:19:07.767Z,13.27
2017-06-24T20:21:36.845Z,13.43
2017-06-24T20:26:35.014Z,13.97
2017-06-24T20:29:04.079Z,13.10
2017-06-24T20:31:33.173Z,13.63
2017-06-24T20:34:02.268Z,13.70
2017-06-24T20:36:31.340Z,13.33
2017-06-24T20:39:00.383Z,13.53
2017-06-24T20:41:29.474Z,12.87
2017-06-24T20:43:58.529Z,13.87
2017-06-24T20:46:27.588Z,14.00
2017-06-24T20:48:56.666Z,14.17
2017-06-24T20:51:25.761Z,14.17
2017-06-24T20:53:54.820Z,14.53
2017-06-24T20:56:23.912Z,15.57
2017-06-24T20:58:52.965Z,15.63
2017-06-24T21:01:22.052Z,16.33
2017-06-24T21:03:51.136Z,16.93
2017-06-24T21:06:20.181Z,17.37
2017-06-24T21:08:49.248Z,16.50
2017-06-24T21:11:18.353Z,16.50
2017-06-24T21:13:47.428Z,17.30
2017-06-24T21:16:16.532Z,17.37
2017-06-24T21:18:45.576Z,17.87
2017-06-24T21:21:14.649Z,17.23
2017-06-24T21:23:43.721Z,18.30
2017-06-24T21:26:12.836Z,19.40
2017-06-24T21:28:41.906Z,18.33
2017-06-24T21:31:10.996Z,18.27
2017-06-24T21:33:40.055Z,19.10
2017-06-24T21:36:09.129Z,19.70
2017-06-24T21:38:38.233Z,19.57
2017-06-24T21:41:07.303Z,19.43
2017-06-24T21:43:36.392Z,19.80
2017-06-24T21:46:05.463Z,21.03
2017-06-24T21:48:34.522Z,22.03
2017-06-24T21:51:03.622Z,22.83
2017-06-24T21:53:32.724Z,21.90
2017-06-24T21:56:01.809Z,22.37
2017-06-24T21:58:30.843Z,22.87
2017-06-24T22:00:59.967Z,22.87
2017-06-24T22:03:29.039Z,21.47
2017-06-24T22:05:58.103Z,23.60
2017-06-24T22:08:27.216Z,21.40
2017-06-24T22:10:56.276Z,21.37
2017-06-24T22:13:25.347Z,22.50
2017-06-24T22:15:54.438Z,23.10
2017-06-24T22:18:23.479Z,24.13
2017-06-24T22:20:52.601Z,22.23
2017-06-24T22:23:21.662Z,23.63
2017-06-24T22:25:50.759Z,23.20
2017-06-24T22:28:19.816Z,23.83
2017-06-24T22:30:48.891Z,23.43
2017-06-24T22:33:17.965Z,22.27
2017-06-24T22:35:47.070Z,25.20
2017-06-24T22:38:16.145Z,21.97
2017-06-24T22:40:45.254Z,22.73
2017-06-24T22:43:14.364Z,21.63
2017-06-24T22:45:43.428Z,22.60
2017-06-24T22:48:12.522Z,21.60
2017-06-24T22:50:41.610Z,22.53
2017-06-24T22:53:10.758Z,20.97
2017-06-24T22:55:39.826Z,23.33
2017-06-24T22:58:08.944Z,22.37
2017-06-24T23:00:38.021Z,19.37
2017-06-24T23:03:07.142Z,20.60
2017-06-24T23:05:36.193Z,21.23
2017-06-24T23:08:05.261Z,19.40
2017-06-24T23:10:34.379Z,19.50
2017-06-24T23:13:03.494Z,19.20
2017-06-24T23:15:32.560Z,21.70
2017-06-24T23:18:01.636Z,21.33
2017-06-24T23:20:30.708Z,21.03
2017-06-24T23:22:59.770Z,21.40
2017-06-24T23:25:28.862Z,23.27
2017-06-24T23:27:57.929Z,22.97
2017-06-24T23:30:27.040Z,24.07
2017-06-24T23:32:56.324Z,24.60
2017-06-24T23:35:25.396Z,24.73
2017-06-24T23:37:54.476Z,29.37
2017-06-24T23:40:23.717Z,24.77
2017-06-24T23:42:52.777Z,24.47
2017-06-24T23:45:21.875Z,22.57
2017-06-24T23:47:50.936Z,25.13
2017-06-24T23:50:20.036Z,25.23
2017-06-24T23:52:49.135Z,23.10
2017-06-24T23:55:18.275Z,24.00
2017-06-24T23:57:47.302Z,23.10
